createdAt,value
2024-04-03T00:00:39.351Z,1261
2024-04-03T00:02:23.050Z,1260.8
2024-04-03T00:04:06.754Z,1260.3
2024-04-03T00:05:50.451Z,1257.7
2024-04-03T00:07:34.174Z,1247.6
2024-04-03T00:09:17.881Z,1236
2024-04-03T00:11:01.567Z,1230
2024-04-03T00:12:45.282Z,1229.2
2024-04-03T00:14:28.990Z,1230.1
2024-04-03T00:16:12.701Z,1230.3
2024-04-03T00:17:56.409Z,1229
2024-04-03T00:19:40.102Z,1227
2024-04-03T00:21:23.803Z,1225.4
2024-04-03T00:23:07.506Z,1224.8
2024-04-03T00:24:51.198Z,1221.7
2024-04-03T00:26:34.899Z,1216.3
2024-04-03T00:28:18.602Z,1210.8
2024-04-03T00:30:02.283Z,1207.7
2024-04-03T00:31:46.009Z,1202.8
2024-04-03T00:33:29.711Z,1202.1
2024-04-03T00:35:13.405Z,1202.2
2024-04-03T00:36:57.088Z,1199.6
2024-04-03T00:38:40.899Z,1194.6
2024-04-03T00:40:24.499Z,1188.4
2024-04-03T00:42:08.257Z,1184.8
2024-04-03T00:43:51.890Z,1183.5
2024-04-03T00:45:35.599Z,1178.9
2024-04-03T00:47:19.315Z,1174.1
2024-04-03T00:49:03.026Z,1172
2024-04-03T00:50:46.703Z,1170.3
2024-04-03T00:52:30.409Z,1166.9
2024-04-03T00:54:14.116Z,1163.1
2024-04-03T00:55:57.821Z,1158.8
2024-04-03T00:57:41.512Z,1156.7
2024-04-03T00:59:25.201Z,1154.4
2024-04-03T01:01:08.915Z,1152.3
2024-04-03T01:02:52.605Z,1147.8
2024-04-03T01:04:36.298Z,1143.9
2024-04-03T01:06:20.014Z,1140.1
2024-04-03T01:08:03.728Z,1137.2
2024-04-03T01:09:47.433Z,1137.7
2024-04-03T01:11:31.115Z,1138.5
2024-04-03T01:13:14.809Z,1136.8
2024-04-03T01:14:58.522Z,1134.3
2024-04-03T01:16:42.238Z,1129.9
2024-04-03T01:18:25.932Z,1128.1
2024-04-03T01:20:09.636Z,1124.6
2024-04-03T01:21:53.327Z,1118.6
2024-04-03T01:23:37.036Z,1114.1
2024-04-03T01:25:20.750Z,1114.2
2024-04-03T01:27:04.438Z,1109.1
2024-04-03T01:28:48.162Z,1102.9
2024-04-03T01:30:31.848Z,1099.5
2024-04-03T01:32:15.564Z,1098.8
2024-04-03T01:33:59.266Z,1093.6
2024-04-03T01:35:42.967Z,1087.4
2024-04-03T01:37:26.662Z,1087.8
2024-04-03T01:39:10.365Z,1088.7
2024-04-03T01:40:54.044Z,1089.6
2024-04-03T01:42:37.775Z,1083.4
2024-04-03T01:44:21.468Z,1077.7
2024-04-03T01:46:05.173Z,1070.7
2024-04-03T01:47:48.918Z,1068.7
2024-04-03T01:49:32.555Z,1065.5
2024-04-03T01:51:16.267Z,1061.4
2024-04-03T01:52:59.968Z,1058.3
2024-04-03T01:54:43.668Z,1056
2024-04-03T01:56:27.376Z,1056.2
2024-04-03T01:58:11.085Z,1055.5
2024-04-03T01:59:54.773Z,1051.1
2024-04-03T02:01:38.464Z,1047.1
2024-04-03T02:03:22.167Z,1043.2
2024-04-03T02:05:05.872Z,1041.5
2024-04-03T02:06:49.566Z,1038.8
2024-04-03T02:08:33.256Z,1031.6
2024-04-03T02:10:16.972Z,1026.5
2024-04-03T02:12:00.683Z,1024.4
2024-04-03T02:13:44.383Z,1023.7
2024-04-03T02:15:28.052Z,1020.9
2024-04-03T02:17:11.780Z,1017.6
2024-04-03T02:18:55.489Z,1017
2024-04-03T02:20:39.197Z,1015.9
2024-04-03T02:22:22.876Z,1012.3
2024-04-03T02:24:06.581Z,1014.7
2024-04-03T02:25:50.283Z,1012.1
2024-04-03T02:27:34.005Z,1006.2
2024-04-03T02:29:17.676Z,1004.7
2024-04-03T02:31:01.380Z,1001.8
2024-04-03T02:32:45.094Z,1004.4
2024-04-03T02:34:28.792Z,1002
2024-04-03T02:36:12.474Z,998.4
2024-04-03T02:37:56.191Z,995.9
2024-04-03T02:39:39.925Z,991.5
2024-04-03T02:41:23.646Z,989.4
2024-04-03T02:43:07.337Z,987.1
2024-04-03T02:44:51.042Z,984.7
2024-04-03T02:46:34.750Z,980.6
2024-04-03T02:48:18.443Z,980.9
2024-04-03T02:50:02.139Z,979.4
2024-04-03T02:51:45.880Z,978.5
2024-04-03T02:53:29.558Z,976.8
2024-04-03T02:55:13.268Z,974.6
2024-04-03T02:56:56.962Z,972.2
2024-04-03T02:58:40.650Z,969.8
2024-04-03T03:00:24.352Z,967.2
2024-04-03T03:02:08.081Z,963.1
2024-04-03T03:03:51.774Z,957.6
2024-04-03T03:05:35.479Z,954.8
2024-04-03T03:07:19.135Z,955.3
2024-04-03T03:09:02.826Z,954.9
2024-04-03T03:10:46.518Z,952.2
2024-04-03T03:12:30.207Z,950.8
2024-04-03T03:14:13.937Z,948.6
2024-04-03T03:15:57.625Z,942
2024-04-03T03:17:41.315Z,939.7
2024-04-03T03:19:25.022Z,940.8
2024-04-03T03:21:08.733Z,941.5
2024-04-03T03:22:52.432Z,940
2024-04-03T03:24:36.140Z,938.9
2024-04-03T03:26:19.837Z,939.9
2024-04-03T03:28:03.534Z,940.4
2024-04-03T03:29:47.258Z,942.7
2024-04-03T03:31:30.959Z,941.8
2024-04-03T03:33:14.649Z,941.8
2024-04-03T03:34:58.352Z,939.1
2024-04-03T03:36:42.064Z,936.3
2024-04-03T03:38:25.756Z,938.2
2024-04-03T03:40:09.463Z,937.4
2024-04-03T03:41:53.198Z,937.8
2024-04-03T03:43:36.884Z,934.8
2024-04-03T03:45:20.615Z,931.5
2024-04-03T03:47:04.281Z,926.5
2024-04-03T03:48:47.975Z,921.2
2024-04-03T03:50:31.672Z,916
2024-04-03T03:52:15.380Z,913.1
2024-04-03T03:53:59.086Z,908.9
2024-04-03T03:55:42.782Z,907.9
2024-04-03T03:57:26.475Z,911.3
2024-04-03T03:59:10.182Z,911.2
2024-04-03T04:00:53.890Z,910.1
2024-04-03T04:02:37.578Z,904.4
2024-04-03T04:06:04.974Z,899
2024-04-03T04:07:48.691Z,899.7
2024-04-03T04:09:32.377Z,901.9
2024-04-03T04:11:16.079Z,901.3
2024-04-03T04:12:59.791Z,897
2024-04-03T04:14:43.489Z,894.1
2024-04-03T04:16:27.171Z,890.4
2024-04-03T04:18:10.880Z,890.7
2024-04-03T04:19:54.592Z,892.5
2024-04-03T04:21:38.302Z,892
2024-04-03T04:23:22.001Z,892.9
2024-04-03T04:25:05.718Z,891.1
2024-04-03T04:26:49.399Z,889.8
2024-04-03T04:28:33.101Z,887
2024-04-03T04:30:16.784Z,884.3
2024-04-03T04:32:00.483Z,876.1
2024-04-03T04:33:44.188Z,873.7
2024-04-03T04:35:27.907Z,871.4
2024-04-03T04:37:11.599Z,872
2024-04-03T04:38:55.295Z,869.1
2024-04-03T04:40:39.015Z,865.9
2024-04-03T04:42:22.715Z,866.4
2024-04-03T04:44:06.397Z,866.7
2024-04-03T04:45:50.081Z,864.8
2024-04-03T04:47:33.808Z,862.1
2024-04-03T04:49:17.504Z,864.3
2024-04-03T04:51:01.212Z,866.8
2024-04-03T04:52:44.904Z,867
2024-04-03T04:54:28.605Z,866.1
2024-04-03T04:56:12.316Z,863.6
2024-04-03T04:57:56.011Z,859.6
2024-04-03T04:59:39.731Z,857.6
2024-04-03T05:01:23.397Z,856.4
2024-04-03T05:03:07.115Z,858.9
2024-04-03T05:04:50.808Z,857
2024-04-03T05:06:34.518Z,855.7
2024-04-03T05:08:18.224Z,854.3
2024-04-03T05:10:01.927Z,851.5
2024-04-03T05:11:45.618Z,847.9
2024-04-03T05:13:29.319Z,846.4
2024-04-03T05:15:13.020Z,847.3
2024-04-03T05:16:56.723Z,846.7
2024-04-03T05:18:40.440Z,839.7
2024-04-03T05:20:24.139Z,838.6
2024-04-03T05:22:07.853Z,838.8
2024-04-03T05:23:51.553Z,840.9
2024-04-03T05:25:35.246Z,840.1
2024-04-03T05:27:18.963Z,837.2
2024-04-03T05:29:02.637Z,838.8
2024-04-03T05:30:46.352Z,840.1
2024-04-03T05:32:30.085Z,838.2
2024-04-03T05:34:13.760Z,836.8
2024-04-03T05:35:57.474Z,834.2
2024-04-03T05:37:41.162Z,831.3
2024-04-03T05:39:24.871Z,827.4
2024-04-03T05:41:08.577Z,824.5
2024-04-03T05:42:52.277Z,825.9
2024-04-03T05:44:35.972Z,824.9
2024-04-03T05:46:19.662Z,821
2024-04-03T05:48:03.385Z,823.2
2024-04-03T05:49:47.089Z,823.1
2024-04-03T05:51:30.787Z,822.6
2024-04-03T05:53:14.481Z,824.7
2024-04-03T05:54:58.186Z,825.9
2024-04-03T05:56:41.899Z,820.2
2024-04-03T05:58:25.582Z,815
2024-04-03T06:00:09.290Z,810.9
2024-04-03T06:01:52.993Z,809.9
2024-04-03T06:03:36.708Z,811.3
2024-04-03T06:05:20.400Z,811.3
2024-04-03T06:07:04.108Z,808.9
2024-04-03T06:08:47.815Z,808.4
2024-04-03T06:10:31.507Z,805
2024-04-03T06:12:15.219Z,802.7
2024-04-03T06:13:58.916Z,802.5
2024-04-03T06:15:42.605Z,803.9
2024-04-03T06:17:26.334Z,802.5
2024-04-03T06:19:10.034Z,800.9
2024-04-03T06:20:53.736Z,798.3
2024-04-03T06:22:37.412Z,796.6
2024-04-03T06:24:21.124Z,794
2024-04-03T06:26:04.832Z,791
2024-04-03T06:27:48.525Z,786
2024-04-03T06:29:32.224Z,781.2
2024-04-03T06:31:15.934Z,775.5
2024-04-03T06:32:59.635Z,771.5
2024-04-03T06:34:43.320Z,769.4
2024-04-03T06:36:27.025Z,772.7
2024-04-03T06:38:10.732Z,775.7
2024-04-03T06:39:54.473Z,778.9
2024-04-03T06:41:38.122Z,785.2
2024-04-03T06:43:21.833Z,796.9
2024-04-03T06:45:05.549Z,801.9
2024-04-03T06:46:49.254Z,810.8
2024-04-03T06:48:32.936Z,815.8
2024-04-03T06:50:16.634Z,821
2024-04-03T06:52:00.345Z,822.6
2024-04-03T06:53:44.086Z,828.3
2024-04-03T06:55:27.762Z,832.9
2024-04-03T06:57:11.462Z,834.9
2024-04-03T06:58:55.159Z,834.5
2024-04-03T07:00:38.869Z,831.6
2024-04-03T07:02:22.562Z,829.3
2024-04-03T07:04:06.335Z,825.5
2024-04-03T07:05:49.950Z,823.2
2024-04-03T07:07:33.652Z,822
2024-04-03T07:09:17.368Z,822.2
2024-04-03T07:11:01.072Z,819.9
2024-04-03T07:12:44.761Z,820.6
2024-04-03T07:14:28.477Z,819.3
2024-04-03T07:16:12.167Z,817.6
2024-04-03T07:17:55.864Z,815.9
2024-04-03T07:19:39.558Z,819.4
2024-04-03T07:21:23.273Z,817.6
2024-04-03T07:23:06.986Z,814.4
2024-04-03T07:24:50.663Z,816.8
2024-04-03T07:26:34.403Z,817.6
2024-04-03T07:28:18.093Z,820.2
2024-04-03T07:30:01.779Z,818.7
2024-04-03T07:31:45.492Z,817.1
2024-04-03T07:33:29.200Z,810.6
2024-04-03T07:35:12.906Z,809.9
2024-04-03T07:36:56.652Z,810
2024-04-03T07:38:40.299Z,808.9
2024-04-03T07:40:23.998Z,807.8
2024-04-03T07:42:07.682Z,810
2024-04-03T07:43:51.379Z,812.7
2024-04-03T07:45:35.105Z,813.9
2024-04-03T07:47:18.802Z,818.2
2024-04-03T07:49:02.488Z,820.4
2024-04-03T07:50:46.204Z,821.7
2024-04-03T07:52:29.902Z,824.1
2024-04-03T07:54:13.596Z,822.9
2024-04-03T07:55:57.308Z,821.2
2024-04-03T07:57:41.002Z,820.1
2024-04-03T07:59:24.724Z,818.2
2024-04-03T08:01:08.418Z,817.7
2024-04-03T08:02:52.126Z,816.2
2024-04-03T08:04:35.851Z,815.5
2024-04-03T08:06:19.539Z,816.3
2024-04-03T08:08:03.236Z,815.6
2024-04-03T08:09:46.939Z,815.3
2024-04-03T08:11:30.634Z,817
2024-04-03T08:13:14.326Z,819.6
2024-04-03T08:14:58.039Z,817.6
2024-04-03T08:16:41.708Z,818.8
2024-04-03T08:18:25.429Z,818.9
2024-04-03T08:20:09.135Z,820.7
2024-04-03T08:21:52.849Z,819.9
2024-04-03T08:23:36.522Z,818.4
2024-04-03T08:25:20.240Z,817.3
2024-04-03T08:28:47.634Z,814.9
2024-04-03T08:30:31.477Z,812.9
2024-04-03T08:32:15.371Z,810
2024-04-03T08:33:58.747Z,808.5
2024-04-03T08:35:42.743Z,806.1
2024-04-03T08:37:26.154Z,806.2
2024-04-03T08:39:10.130Z,805
2024-04-03T08:40:53.891Z,801.8
2024-04-03T08:42:37.262Z,803.5
2024-04-03T08:44:21.338Z,802.4
2024-04-03T08:46:05.070Z,804.2
2024-04-03T08:47:48.638Z,803.6
2024-04-03T08:49:32.090Z,800.9
2024-04-03T08:51:16.134Z,801.6
2024-04-03T08:52:59.781Z,804.3
2024-04-03T08:54:43.508Z,808.1
2024-04-03T08:56:27.262Z,809.4
2024-04-03T08:58:10.917Z,808.4
2024-04-03T08:59:54.453Z,807.1
2024-04-03T09:01:37.967Z,802.4
2024-04-03T09:03:21.744Z,800.4
2024-04-03T09:05:05.658Z,802.2
2024-04-03T09:06:49.421Z,805.1
2024-04-03T09:08:33.110Z,807
2024-04-03T09:10:16.863Z,807.4
2024-04-03T09:12:00.234Z,807.3
2024-04-03T09:13:44.069Z,803.8
2024-04-03T09:15:28.024Z,802.1
2024-04-03T09:17:11.663Z,799.3
2024-04-03T09:18:55.163Z,799.6
2024-04-03T09:20:39.082Z,797.5
2024-04-03T09:22:22.772Z,793
2024-04-03T09:24:06.460Z,791.2
2024-04-03T09:25:50.151Z,794.2
2024-04-03T09:27:33.899Z,795
2024-04-03T09:29:17.198Z,795
2024-04-03T09:31:01.214Z,795.6
2024-04-03T09:32:44.705Z,794.7
2024-04-03T09:34:28.665Z,791.2
2024-04-03T09:36:12.152Z,790.1
2024-04-03T09:37:55.724Z,787.2
2024-04-03T09:39:39.736Z,788.4
2024-04-03T09:41:23.470Z,788.4
2024-04-03T09:43:07.165Z,788.2
2024-04-03T09:44:50.741Z,787.1
2024-04-03T09:46:34.621Z,786.8
2024-04-03T09:48:18.228Z,786.8
2024-04-03T09:50:01.970Z,785.3
2024-04-03T09:51:45.659Z,786.1
2024-04-03T09:53:29.365Z,788.1
2024-04-03T09:55:12.976Z,785.9
2024-04-03T09:56:56.801Z,786.5
2024-04-03T09:58:40.133Z,786.8
2024-04-03T10:00:23.837Z,783.6
2024-04-03T10:02:07.780Z,780.6
2024-04-03T10:03:51.372Z,781.2
2024-04-03T10:05:35.285Z,783
2024-04-03T10:07:18.844Z,782
2024-04-03T10:09:02.697Z,774.8
2024-04-03T10:10:46.456Z,774
2024-04-03T10:12:29.995Z,773.3
2024-04-03T10:14:13.780Z,788.1
2024-04-03T10:15:57.399Z,812.8
2024-04-03T10:17:41.122Z,830.7
2024-04-03T10:19:24.774Z,834
2024-04-03T10:21:08.580Z,837.3
2024-04-03T10:22:51.991Z,844.2
2024-04-03T10:24:36.001Z,853.7
2024-04-03T10:26:19.700Z,861.5
2024-04-03T10:28:03.407Z,865.3
2024-04-03T10:29:47.069Z,869.9
2024-04-03T10:31:30.510Z,872.6
2024-04-03T10:33:14.482Z,876.6
2024-04-03T10:34:58.155Z,877
2024-04-03T10:36:41.885Z,874.7
2024-04-03T10:38:25.300Z,874.2
2024-04-03T10:40:09.011Z,873.4
2024-04-03T10:41:52.966Z,872.8
2024-04-03T10:43:36.681Z,872.5
2024-04-03T10:45:20.197Z,874.3
2024-04-03T10:47:04.043Z,871.9
2024-04-03T10:48:47.746Z,871.3
2024-04-03T10:50:31.525Z,874.1
2024-04-03T10:52:15.083Z,882.7
2024-04-03T10:53:58.980Z,890.6
2024-04-03T10:55:42.393Z,900.8
2024-04-03T10:57:25.956Z,905.9
2024-04-03T10:59:09.886Z,916.1
2024-04-03T11:00:53.678Z,926.6
2024-04-03T11:02:37.079Z,936.5
2024-04-03T11:04:21.093Z,943
2024-04-03T11:06:04.583Z,948.5
2024-04-03T11:07:48.494Z,964.1
2024-04-03T11:09:32.191Z,973.3
2024-04-03T11:11:15.570Z,980.9
2024-04-03T11:12:59.417Z,982.2
2024-04-03T11:14:43.453Z,981.9
2024-04-03T11:16:26.779Z,981.4
2024-04-03T11:18:10.721Z,983.4
2024-04-03T11:19:54.405Z,985.9
2024-04-03T11:21:38.035Z,989
2024-04-03T11:23:21.636Z,995.3
2024-04-03T11:25:05.514Z,998
2024-04-03T11:26:49.095Z,995.6
2024-04-03T11:28:32.766Z,1002.1
2024-04-03T11:30:16.702Z,1010
2024-04-03T11:32:00.445Z,1011.4
2024-04-03T11:33:44.011Z,1011.2
2024-04-03T11:35:27.733Z,1012.3
2024-04-03T11:37:11.582Z,1017.8
2024-04-03T11:40:38.506Z,1022.9
2024-04-03T11:42:22.663Z,1029
2024-04-03T11:44:06.289Z,1030.4
2024-04-03T11:45:49.990Z,1029.6
2024-04-03T11:47:33.508Z,1028.5
2024-04-03T11:49:17.035Z,1029.8
2024-04-03T11:51:01.129Z,1027.5
2024-04-03T11:52:44.444Z,1027.2
2024-04-03T11:54:28.530Z,1024.3
2024-04-03T11:56:11.843Z,1022.3
2024-04-03T11:57:55.757Z,1026.9
2024-04-03T11:59:39.642Z,1031.9
2024-04-03T12:01:23.055Z,1037.6
2024-04-03T12:03:06.936Z,1040.7
2024-04-03T12:04:50.818Z,1040.6
2024-04-03T12:06:34.087Z,1043.5
2024-04-03T12:08:17.870Z,1044.8
2024-04-03T12:10:01.863Z,1042.8
2024-04-03T12:11:45.505Z,1045.4
2024-04-03T12:13:29.178Z,1042.5
2024-04-03T12:15:12.853Z,1042.2
2024-04-03T12:16:56.656Z,1039.1
2024-04-03T12:18:40.248Z,1032.1
2024-04-03T12:20:23.897Z,1028.5
2024-04-03T12:22:07.641Z,1028.2
2024-04-03T12:27:18.818Z,1031.5
2024-04-03T12:29:02.476Z,1034.5
2024-04-03T12:30:46.208Z,1038.3
2024-04-03T12:32:29.904Z,1041.8
2024-04-03T12:34:13.609Z,1042.4
2024-04-03T12:35:57.318Z,1044.6
2024-04-03T12:37:40.913Z,1044.2
2024-04-03T12:39:24.683Z,1046.5
2024-04-03T12:41:08.433Z,1051
2024-04-03T12:42:52.107Z,1053.7
2024-04-03T12:44:35.876Z,1052.7
2024-04-03T12:46:19.532Z,1050
2024-04-03T12:48:03.237Z,1049.6
2024-04-03T12:49:46.826Z,1053.9
2024-04-03T12:51:30.285Z,1054.6
2024-04-03T12:53:14.328Z,1056.4
2024-04-03T12:54:58.030Z,1057.1
2024-04-03T12:56:41.794Z,1068.7
2024-04-03T12:58:25.437Z,1091.1
2024-04-03T13:00:09.110Z,1095.4
2024-04-03T13:01:52.922Z,1098.3
2024-04-03T13:03:36.479Z,1096.6
2024-04-03T13:05:20.251Z,1094.3
2024-04-03T13:07:03.968Z,1092.4
2024-04-03T13:08:47.648Z,1085.8
2024-04-03T13:10:31.342Z,1080.3
2024-04-03T13:12:15.055Z,1078.5
2024-04-03T13:13:58.765Z,1075.9
2024-04-03T13:15:42.540Z,1075.6
2024-04-03T13:17:26.140Z,1073.5
2024-04-03T13:19:09.874Z,1070.8
2024-04-03T13:20:53.540Z,1069.2
2024-04-03T13:22:37.326Z,1070.5
2024-04-03T13:24:20.903Z,1071.7
2024-04-03T13:26:04.733Z,1071.8
2024-04-03T13:27:48.425Z,1072
2024-04-03T13:29:32.126Z,1080.2
2024-04-03T13:31:15.734Z,1086.7
2024-04-03T13:32:59.222Z,1091.6
2024-04-03T13:34:42.850Z,1095.6
2024-04-03T13:36:26.560Z,1099.7
2024-04-03T13:38:10.653Z,1105.9
2024-04-03T13:39:54.158Z,1109.9
2024-04-03T13:41:37.777Z,1108.6
2024-04-03T13:43:21.714Z,1109.8
2024-04-03T13:45:05.375Z,1114.3
2024-04-03T13:46:49.125Z,1116.9
2024-04-03T13:48:32.865Z,1123.8
2024-04-03T13:50:16.304Z,1128.1
2024-04-03T13:52:00.223Z,1131.4
2024-04-03T13:53:43.924Z,1136.1
2024-04-03T13:55:27.633Z,1144
2024-04-03T13:57:11.347Z,1147.2
2024-04-03T14:00:38.531Z,1149.1
2024-04-03T14:02:22.363Z,1155
2024-04-03T14:04:05.793Z,1161.6
2024-04-03T14:05:49.858Z,1161.8
2024-04-03T14:07:33.300Z,1161.2
2024-04-03T14:09:17.271Z,1164.8
2024-04-03T14:11:01.029Z,1165.8
2024-04-03T14:12:44.275Z,1165.7
2024-04-03T14:14:28.341Z,1163.8
2024-04-03T14:16:11.777Z,1161
2024-04-03T14:17:55.386Z,1162.6
2024-04-03T14:19:39.476Z,1165.5
2024-04-03T14:21:23.106Z,1170.4
2024-04-03T14:23:06.789Z,1174.5
2024-04-03T14:24:50.473Z,1179.1
2024-04-03T14:26:34.299Z,1176.7
2024-04-03T14:28:17.896Z,1176.7
2024-04-03T14:30:01.314Z,1178.4
2024-04-03T14:31:45.322Z,1183
2024-04-03T14:33:28.997Z,1186.9
2024-04-03T14:35:12.760Z,1189.8
2024-04-03T14:36:56.469Z,1194.3
2024-04-03T14:38:40.184Z,1193.8
2024-04-03T14:40:23.510Z,1188.2
2024-04-03T14:42:07.451Z,1185.2
2024-04-03T14:43:51.267Z,1183.9
2024-04-03T14:45:34.945Z,1180.8
2024-04-03T14:47:18.644Z,1175.1
2024-04-03T14:49:02.051Z,1170.7
2024-04-03T14:50:46.147Z,1163.1
2024-04-03T14:52:29.824Z,1154.8
2024-04-03T14:54:13.296Z,1089.3
2024-04-03T14:55:56.858Z,1054
2024-04-03T14:57:40.597Z,1036.8
2024-04-03T14:59:24.588Z,991.9
2024-04-03T15:01:07.940Z,984.1
2024-04-03T15:02:51.947Z,982.8
2024-04-03T15:04:35.670Z,984.3
2024-04-03T15:06:19.352Z,985.2
2024-04-03T15:08:02.944Z,985.5
2024-04-03T15:09:46.836Z,985.4
2024-04-03T15:11:30.581Z,987.4
2024-04-03T15:13:14.205Z,988.2
2024-04-03T15:14:57.898Z,987.2
2024-04-03T15:16:41.698Z,992.3
2024-04-03T15:18:25.297Z,992.5
2024-04-03T15:20:09.030Z,992.1
2024-04-03T15:21:52.720Z,991.5
2024-04-03T15:23:36.377Z,991.3
2024-04-03T15:25:20.055Z,991.9
2024-04-03T15:27:03.847Z,989.3
2024-04-03T15:28:47.546Z,984.3
2024-04-03T15:30:31.230Z,984.9
2024-04-03T15:32:14.974Z,985
2024-04-03T15:33:58.590Z,988.8
2024-04-03T15:35:42.304Z,989.6
2024-04-03T15:37:25.786Z,988.3
2024-04-03T15:39:09.715Z,985.9
2024-04-03T15:40:53.471Z,984.9
2024-04-03T15:42:36.778Z,984.8
2024-04-03T15:44:20.850Z,984.2
2024-04-03T15:46:04.605Z,981.3
2024-04-03T15:47:48.300Z,979.2
2024-04-03T15:49:31.930Z,975.4
2024-04-03T15:51:15.662Z,977.2
2024-04-03T15:52:59.300Z,979.5
2024-04-03T15:54:43.015Z,981
2024-04-03T15:56:26.790Z,981.6
2024-04-03T15:58:10.112Z,986
2024-04-03T15:59:54.121Z,994.5
2024-04-03T16:01:37.874Z,1000.7
2024-04-03T16:03:21.635Z,1000.8
2024-04-03T16:05:05.190Z,1007.1
2024-04-03T16:06:48.994Z,1013
2024-04-03T16:08:32.714Z,1022.9
2024-04-03T16:10:16.349Z,1020.3
2024-04-03T16:11:59.756Z,1013
2024-04-03T16:13:43.809Z,1009.7
2024-04-03T16:15:27.448Z,1009.8
2024-04-03T16:17:11.026Z,1011.9
2024-04-03T16:18:54.913Z,1010.3
2024-04-03T16:20:38.405Z,1013.7
2024-04-03T16:22:22.213Z,1020.7
2024-04-03T16:24:05.985Z,1030.8
2024-04-03T16:25:49.684Z,1042
2024-04-03T16:27:33.461Z,1054.4
2024-04-03T16:29:17.144Z,1055.8
2024-04-03T16:31:00.862Z,1062.5
2024-04-03T16:32:44.579Z,1063.9
2024-04-03T16:34:28.245Z,1064.3
2024-04-03T16:36:11.886Z,1061.2
2024-04-03T16:37:55.607Z,1061.3
2024-04-03T16:39:39.237Z,1060.6
2024-04-03T16:41:22.805Z,1059.5
2024-04-03T16:43:06.422Z,1057.2
2024-04-03T16:44:50.532Z,1056.9
2024-04-03T16:46:33.742Z,1058
2024-04-03T16:48:17.816Z,1057.4
2024-04-03T16:50:01.156Z,1055
2024-04-03T16:51:44.988Z,1054.2
2024-04-03T16:53:28.927Z,1056.2
2024-04-03T16:55:12.563Z,1058.2
2024-04-03T16:56:56.355Z,1061.7
2024-04-03T16:58:39.661Z,1065.2
2024-04-03T17:00:23.640Z,1063.5
2024-04-03T17:02:07.378Z,1065.4
2024-04-03T17:03:51.121Z,1068.2
2024-04-03T17:05:34.827Z,1064.6
2024-04-03T17:07:18.534Z,1060.2
2024-04-03T17:09:01.910Z,1055.4
2024-04-03T17:10:45.802Z,1051.1
2024-04-03T17:12:29.794Z,1046.3
2024-04-03T17:14:13.332Z,1043.9
2024-04-03T17:15:57.054Z,1042.4
2024-04-03T17:17:40.802Z,1047.8
2024-04-03T17:19:24.606Z,1082.1
2024-04-03T17:21:07.793Z,1167.2
2024-04-03T17:22:51.556Z,1164.6
2024-04-03T17:24:35.558Z,1161.4
2024-04-03T17:26:19.246Z,1154.4
2024-04-03T17:28:02.988Z,1153.7
2024-04-03T17:29:46.698Z,1159.8
2024-04-03T17:31:30.271Z,1158.1
2024-04-03T17:33:14.052Z,1153.9
2024-04-03T17:34:57.772Z,1161.3
2024-04-03T17:36:41.157Z,1155.1
2024-04-03T17:38:25.173Z,1145.6
2024-04-03T17:40:08.845Z,1148.5
2024-04-03T17:41:52.218Z,1147.6
2024-04-03T17:43:36.215Z,1151.4
2024-04-03T17:45:20.045Z,1152.7
2024-04-03T17:47:03.600Z,1154
2024-04-03T17:48:47.392Z,1152.5
2024-04-03T17:50:31.044Z,1145.6
2024-04-03T17:52:14.489Z,1125.4
2024-04-03T17:53:58.265Z,1074.4
2024-04-03T17:55:42.174Z,1081.2
2024-04-03T17:57:25.791Z,1083.7
2024-04-03T17:59:09.669Z,1085.9
2024-04-03T18:00:53.247Z,1087.2
2024-04-03T18:02:36.982Z,1083.8
2024-04-03T18:04:20.356Z,1076.5
2024-04-03T18:06:04.398Z,1073.3
2024-04-03T18:07:48.111Z,1070.3
2024-04-03T18:09:31.780Z,1070.8
2024-04-03T18:11:15.345Z,1068.6
2024-04-03T18:12:59.289Z,1069.6
2024-04-03T18:14:42.754Z,1080.7
2024-04-03T18:16:26.360Z,1089.9
2024-04-03T18:18:10.253Z,1098.2
2024-04-03T18:19:54.013Z,1103
2024-04-03T18:21:37.725Z,1112.6
2024-04-03T18:23:21.142Z,1127.3
2024-04-03T18:25:04.788Z,1134.4
2024-04-03T18:26:48.826Z,1140.8
2024-04-03T18:28:32.478Z,1147
2024-04-03T18:30:16.144Z,1161
2024-04-03T18:31:59.934Z,1174.9
2024-04-03T18:33:43.638Z,1189.9
2024-04-03T18:35:27.100Z,1201.3
2024-04-03T18:37:11.044Z,1199.4
2024-04-03T18:38:54.772Z,1194.1
2024-04-03T18:40:38.443Z,1189.1
2024-04-03T18:42:22.144Z,1188.4
2024-04-03T18:44:05.623Z,1192.5
2024-04-03T18:45:49.523Z,1202.4
2024-04-03T18:47:33.190Z,1208.9
2024-04-03T18:49:16.905Z,1214
2024-04-03T18:51:00.506Z,1222.5
2024-04-03T18:52:44.376Z,1232.4
2024-04-03T18:54:28.061Z,1237.4
2024-04-03T18:56:11.663Z,1241.6
2024-04-03T18:57:55.430Z,1240.3
2024-04-03T18:59:39.150Z,1240.4
2024-04-03T19:01:22.781Z,1244.7
2024-04-03T19:03:06.363Z,1245.3
2024-04-03T19:04:50.262Z,1243.7
2024-04-03T19:06:34.027Z,1245
2024-04-03T19:08:17.385Z,1247.5
2024-04-03T19:10:01.374Z,1251.1
2024-04-03T19:11:45.097Z,1253.4
2024-04-03T19:13:28.929Z,1251.8
2024-04-03T19:15:12.147Z,1249
2024-04-03T19:16:55.817Z,1244.1
2024-04-03T19:18:39.506Z,1247.2
2024-04-03T19:20:23.256Z,1254.5
2024-04-03T19:22:06.943Z,1253.2
2024-04-03T19:23:50.702Z,1251.2
2024-04-03T19:25:34.274Z,1249.1
2024-04-03T19:27:18.090Z,1244.1
2024-04-03T19:29:01.855Z,1239.3
2024-04-03T19:30:45.437Z,1232.9
2024-04-03T19:32:29.176Z,1226.9
2024-04-03T19:34:12.804Z,1223.2
2024-04-03T19:35:56.597Z,1219.1
2024-04-03T19:37:40.263Z,1214.9
2024-04-03T19:39:23.933Z,1211.4
2024-04-03T19:41:07.687Z,1208.5
2024-04-03T19:42:51.354Z,1205.5
2024-04-03T19:44:35.075Z,1197.9
2024-04-03T19:46:18.768Z,1197.8
2024-04-03T19:48:02.471Z,1193.4
2024-04-03T19:49:46.208Z,1189.2
2024-04-03T19:51:29.691Z,1190.6
2024-04-03T19:53:13.567Z,1195.7
2024-04-03T19:54:57.167Z,1199.7
2024-04-03T19:56:40.908Z,1199.8
2024-04-03T19:58:24.337Z,1202.8
2024-04-03T20:00:08.327Z,1207.9
2024-04-03T20:01:52.160Z,1215.5
2024-04-03T20:03:35.736Z,1222.3
2024-04-03T20:05:19.562Z,1226
2024-04-03T20:07:03.183Z,1229.1
2024-04-03T20:08:46.911Z,1231.7
2024-04-03T20:10:30.591Z,1229.1
2024-04-03T20:12:14.055Z,1233
2024-04-03T20:13:58.053Z,1230
2024-04-03T20:15:41.553Z,1230.9
2024-04-03T20:17:25.380Z,1233.3
2024-04-03T20:19:09.135Z,1236.3
2024-04-03T20:20:52.489Z,1247
2024-04-03T20:22:36.495Z,1257.7
2024-04-03T20:24:20.214Z,1272.8
2024-04-03T20:26:03.696Z,1283.1
2024-04-03T20:27:47.690Z,1287.2
2024-04-03T20:29:31.399Z,1293
2024-04-03T20:31:15.045Z,1297
2024-04-03T20:32:58.772Z,1302.6
2024-04-03T20:34:42.467Z,1312.3
2024-04-03T20:36:26.166Z,1321.9
2024-04-03T20:38:09.823Z,1325.6
2024-04-03T20:39:53.503Z,1328.4
2024-04-03T20:41:37.210Z,1332.8
2024-04-03T20:43:20.597Z,1336.4
2024-04-03T20:45:04.650Z,1338.3
2024-04-03T20:46:48.405Z,1342
2024-04-03T20:48:32.062Z,1343.1
2024-04-03T20:50:15.754Z,1344.2
2024-04-03T20:51:59.454Z,1349
2024-04-03T20:53:43.143Z,1351.4
2024-04-03T20:55:26.780Z,1356
2024-04-03T20:57:10.534Z,1359.7
2024-04-03T20:58:54.321Z,1363.3
2024-04-03T21:00:37.884Z,1367.7
2024-04-03T21:02:21.648Z,1371.7
2024-04-03T21:04:05.335Z,1374.5
2024-04-03T21:05:49.047Z,1377.1
2024-04-03T21:07:32.771Z,1379.3
2024-04-03T21:09:16.134Z,1382.9
2024-04-03T21:11:00.206Z,1382.1
2024-04-03T21:12:43.717Z,1382.6
2024-04-03T21:14:27.240Z,1383.7
2024-04-03T21:16:11.200Z,1382.6
2024-04-03T21:17:54.926Z,1386.7
2024-04-03T21:19:38.481Z,1388.6
2024-04-03T21:21:22.315Z,1387.8
2024-04-03T21:23:06.019Z,1384.5
2024-04-03T21:24:49.419Z,1382.7
2024-04-03T21:26:33.454Z,1380.6
2024-04-03T21:28:17.103Z,1380.3
2024-04-03T21:30:00.578Z,1383.3
2024-04-03T21:31:44.523Z,1385.9
2024-04-03T21:33:28.216Z,1386.2
2024-04-03T21:35:11.981Z,1383.7
2024-04-03T21:36:55.710Z,1387.9
2024-04-03T21:38:39.350Z,1391
2024-04-03T21:40:22.942Z,1393.2
2024-04-03T21:42:06.830Z,1395.8
2024-04-03T21:43:50.476Z,1398.5
2024-04-03T21:45:34.142Z,1401.6
2024-04-03T21:47:17.899Z,1402
2024-04-03T21:49:01.484Z,1397.5
2024-04-03T21:50:45.143Z,1400.3
2024-04-03T21:52:29.029Z,1399.1
2024-04-03T21:54:12.434Z,1400.8
2024-04-03T21:55:56.294Z,1399.4
2024-04-03T21:57:40.043Z,1403.1
2024-04-03T21:59:23.553Z,1400.4
2024-04-03T22:01:07.427Z,1399.5
2024-04-03T22:02:51.187Z,1402.3
2024-04-03T22:04:34.861Z,1403.1
2024-04-03T22:06:18.552Z,1402.2
2024-04-03T22:08:01.949Z,1400.9
2024-04-03T22:09:46.038Z,1398
2024-04-03T22:11:29.676Z,1391.5